Time;durP1;ratioP1;P1;durP2;ratioP2;P2;SDS_P1;SDS_P2;PMS_P1;PMS_P2;Temp;Humidity;BMP_temperature;BMP_pressure;BME280_temperature;BME280_humidity;BME280_pressure;Samples;Min_cycle;Max_cycle;Signal;HPM_P1;HPM_P2
2023/10/01 00:00:57;;;;;;;5.90;3.10;;;14.70;48.20;;;;;;4971479;28;20504;-69
2023/10/01 00:03:27;;;;;;;9.43;2.93;;;14.80;50.30;;;;;;4976289;28;20858;-70
2023/10/01 00:05:53;;;;;;;10.73;4.07;;;14.80;50.70;;;;;;4993724;28;21169;-69
2023/10/01 00:08:19;;;;;;;9.50;3.03;;;14.80;51.20;;;;;;4976575;28;20436;-69
2023/10/01 00:10:45;;;;;;;9.20;3.20;;;14.80;53.30;;;;;;4992949;28;20911;-69
2023/10/01 00:13:35;;;;;;;7.50;3.00;;;14.80;55.10;;;;;;4975687;28;20415;-69
2023/10/01 00:16:23;;;;;;;;;;;;;;;;;;;;;
2023/10/01 00:18:56;;;;;;;7.80;3.30;;;14.80;59.10;;;;;;4995746;28;20411;-67
2023/10/01 00:21:22;;;;;;;8.10;3.03;;;14.80;61.90;;;;;;4996922;28;20459;-69
2023/10/01 00:23:51;;;;;;;13.77;3.50;;;14.80;62.40;;;;;;4980225;28;20858;-67
2023/10/01 00:26:18;;;;;;;12.27;4.60;;;14.80;63.10;;;;;;4980734;28;20231;-68
2023/10/01 00:28:44;;;;;;;6.10;2.83;;;14.80;64.00;;;;;;4979215;28;20440;-69
2023/10/01 00:31:11;;;;;;;4.77;3.10;;;14.80;64.50;;;;;;4995556;28;20456;-67
2023/10/01 00:33:38;;;;;;;6.23;2.97;;;14.80;66.40;;;;;;4997013;28;20161;-69
2023/10/01 00:36:06;;;;;;;6.63;3.33;;;14.80;64.20;;;;;;4997505;28;20432;-69
2023/10/01 00:38:32;;;;;;;4.83;3.20;;;14.70;63.80;;;;;;4980100;28;20427;-68
2023/10/01 00:40:59;;;;;;;10.90;3.33;;;14.70;64.70;;;;;;4996420;28;20482;-69
2023/10/01 00:43:29;;;;;;;6.87;3.40;;;14.70;65.90;;;;;;4977607;28;20935;-67
2023/10/01 00:45:56;;;;;;;10.60;3.70;;;14.70;66.50;;;;;;4978688;28;20821;-70
2023/10/01 00:48:23;;;;;;;6.37;3.20;;;14.70;69.00;;;;;;4996867;28;20901;-67
2023/10/01 00:50:54;;;;;;;8.33;3.20;;;14.70;70.80;;;;;;4995492;28;20444;-70
2023/10/01 00:56:20;;;;;;;13.33;4.63;;;14.70;70.60;;;;;;4982762;28;20982;-69
2023/10/01 00:58:46;;;;;;;6.07;2.80;;;14.70;70.90;;;;;;4979121;28;20534;-69
2023/10/01 01:01:13;;;;;;;9.33;3.70;;;14.70;72.30;;;;;;4995084;28;20817;-69
2023/10/01 01:03:39;;;;;;;4.77;3.30;;;14.60;70.70;;;;;;4997044;28;20407;-67
2023/10/01 01:06:13;;;;;;;6.40;4.47;;;14.60;71.80;;;;;;4963237;28;20825;-67
2023/10/01 01:08:52;;;;;;;8.60;4.10;;;14.60;75.00;;;;;;4965216;28;20415;-67
2023/10/01 01:11:19;;;;;;;5.30;4.10;;;14.50;80.10;;;;;;4964130;28;20491;-68
2023/10/01 01:13:45;;;;;;;8.90;3.70;;;14.50;89.20;;;;;;4978328;28;20490;-69
2023/10/01 01:16:19;;;;;;;9.13;4.30;;;14.50;91.40;;;;;;4995554;28;20440;-69
2023/10/01 01:18:51;;;;;;;17.00;4.50;;;14.60;93.70;;;;;;4996737;28;20420;-69
2023/10/01 01:21:18;;;;;;;7.67;5.57;;;14.60;93.70;;;;;;4995769;28;20523;-68
2023/10/01 01:23:50;;;;;;;10.60;3.60;;;14.60;93.70;;;;;;4995811;28;20447;-69
2023/10/01 01:29:29;;;;;;;9.70;3.90;;;14.60;93.70;;;;;;4995618;28;20486;-69
2023/10/01 01:32:13;;;;;;;10.33;3.33;;;14.60;93.70;;;;;;4977467;28;20486;-67
2023/10/01 01:34:46;;;;;;;8.00;3.90;;;14.60;93.70;;;;;;4996469;28;20463;-69
2023/10/01 01:38:13;;;;;;;9.73;4.20;;;14.60;93.70;;;;;;4996348;28;20423;-68
2023/10/01 01:40:13;;;;;;;13.03;4.50;;;14.60;93.70;;;;;;4978248;28;20431;-70
2023/10/01 01:42:41;;;;;;;11.73;3.43;;;14.60;93.70;;;;;;4995002;28;20463;-69
2023/10/01 01:45:19;;;;;;;5.80;3.27;;;14.60;93.70;;;;;;4993767;28;20442;-69
2023/10/01 01:47:45;;;;;;;8.33;3.90;;;14.60;93.70;;;;;;4959338;28;20475;-67
2023/10/01 01:50:27;;;;;;;12.23;3.70;;;14.60;93.70;;;;;;4975810;28;20409;-68
2023/10/01 01:52:57;;;;;;;10.47;3.67;;;14.50;93.70;;;;;;4993982;28;20522;-67
2023/10/01 01:55:29;;;;;;;8.17;3.90;;;14.50;93.70;;;;;;4978926;28;20416;-70
2023/10/01 01:58:08;;;;;;;8.37;3.20;;;14.50;93.70;;;;;;4995853;28;20439;-67
2023/10/01 02:00:39;;;;;;;6.63;3.50;;;14.50;93.70;;;;;;4992602;28;20440;-70
2023/10/01 02:03:14;;;;;;;12.27;3.80;;;14.60;93.80;;;;;;4995324;28;20420;-67
2023/10/01 02:05:47;;;;;;;7.47;3.60;;;14.60;93.70;;;;;;4995957;28;20778;-67
2023/10/01 02:08:34;;;;;;;7.07;3.53;;;14.60;93.70;;;;;;4979569;28;20422;-67
2023/10/01 02:11:08;;;;;;;8.90;3.67;;;14.60;93.70;;;;;;4993932;28;20462;-68
2023/10/01 02:13:40;;;;;;;4.90;4.23;;;14.60;93.70;;;;;;4979537;28;20416;-69
2023/10/01 02:19:11;;;;;;;4.03;3.70;;;14.50;93.70;;;;;;4994956;28;20418;-69
2023/10/01 02:21:48;;;;;;;6.00;3.40;;;14.60;93.80;;;;;;4962928;28;20543;-67
2023/10/01 02:24:22;;;;;;;9.97;4.20;;;14.60;93.70;;;;;;4995621;28;20900;-67
2023/10/01 02:27:01;;;;;;;8.93;4.30;;;14.60;93.70;;;;;;4978627;28;20824;-70
2023/10/01 02:29:31;;;;;;;12.00;4.03;;;14.60;93.70;;;;;;4947424;28;20450;-69
2023/10/01 02:32:04;;;;;;;5.20;3.93;;;14.60;93.70;;;;;;4994153;28;20567;-67
2023/10/01 02:34:31;;;;;;;9.67;3.90;;;14.50;93.70;;;;;;4976509;28;20452;-68
2023/10/01 02:37:08;;;;;;;7.67;3.67;;;14.50;93.70;;;;;;4995040;28;20439;-70
2023/10/01 02:39:37;;;;;;;6.73;3.57;;;14.60;95.30;;;;;;4993949;28;20422;-71
2023/10/01 02:42:10;;;;;;;10.50;3.63;;;14.50;93.70;;;;;;4977592;28;20442;-67
2023/10/01 02:44:47;;;;;;;7.50;4.00;;;14.50;93.70;;;;;;4994250;28;20522;-69
2023/10/01 02:47:16;;;;;;;9.33;3.33;;;14.50;94.80;;;;;;4993972;28;20960;-69
2023/10/01 02:49:52;;;;;;;4.27;3.80;;;14.50;96.50;;;;;;4994225;28;20419;-69
2023/10/01 02:52:26;;;;;;;5.40;3.10;;;14.60;98.30;;;;;;4994874;28;20441;-69
2023/10/01 02:54:54;;;;;;;13.27;3.33;;;14.60;98.80;;;;;;4977448;28;20519;-68
2023/10/01 02:57:24;;;;;;;9.43;3.03;;;14.60;98.40;;;;;;4977033;28;20452;-70
2023/10/01 03:03:14;;;;;;;4.90;3.57;;;14.60;94.30;;;;;;4994658;28;20440;-70
2023/10/01 03:06:14;;;;;;;8.17;2.83;;;14.60;94.10;;;;;;4994642;28;20420;-67
2023/10/01 03:11:12;;;;;;;8.20;3.53;;;14.60;93.70;;;;;;4977144;28;20450;-70
2023/10/01 03:13:38;;;;;;;14.27;3.40;;;14.60;93.70;;;;;;4976255;28;20432;-69
2023/10/01 03:18:54;;;;;;;9.03;3.50;;;14.70;93.80;;;;;;4979717;28;20411;-69
2023/10/01 03:24:20;;;;;;;4.27;3.00;;;14.50;93.70;;;;;;4950035;28;20412;-68
2023/10/01 03:26:57;;;;;;;8.33;3.67;;;14.60;97.90;;;;;;4977000;28;20518;-67
2023/10/01 03:29:36;;;;;;;6.03;2.63;;;14.60;99.20;;;;;;4993225;28;20418;-70
2023/10/01 03:34:47;;;;;;;6.20;3.43;;;14.50;99.90;;;;;;4978583;28;20777;-67
2023/10/01 03:37:38;;;;;;;6.63;3.20;;;14.40;99.90;;;;;;4994167;28;20408;-67
2023/10/01 03:40:18;;;;;;;8.73;3.20;;;14.30;99.90;;;;;;4975958;28;20185;-70
2023/10/01 03:42:51;;;;;;;8.30;3.10;;;14.30;99.90;;;;;;4976938;28;20526;-69
2023/10/01 03:45:26;;;;;;;6.87;2.93;;;14.30;99.90;;;;;;4959527;28;20863;-70
2023/10/01 03:48:19;;;;;;;6.03;3.47;;;14.30;99.90;;;;;;4994013;28;20455;-68
2023/10/01 03:50:45;;;;;;;3.73;2.63;;;14.40;99.90;;;;;;4978131;28;20439;-69
2023/10/01 03:53:11;;;;;;;9.43;5.03;;;14.40;99.90;;;;;;4976279;28;20938;-67
2023/10/01 03:55:56;;;;;;;8.27;3.60;;;14.40;99.90;;;;;;4960541;28;20495;-69
2023/10/01 03:58:36;;;;;;;7.90;4.27;;;14.40;99.90;;;;;;4975947;28;20474;-68
2023/10/01 04:01:58;;;;;;;4.13;3.83;;;14.40;99.90;;;;;;4989792;28;20566;-67
2023/10/01 04:03:49;;;;;;;5.37;3.33;;;14.40;99.90;;;;;;4983147;28;20452;-69
2023/10/01 04:06:15;;;;;;;3.90;3.50;;;14.50;99.90;;;;;;4993777;28;20971;-67
2023/10/01 04:08:44;;;;;;;8.50;3.87;;;14.50;99.90;;;;;;4975427;28;20177;-67
2023/10/01 04:11:11;;;;;;;6.60;3.47;;;14.50;99.90;;;;;;4991567;28;20428;-68
2023/10/01 04:14:08;;;;;;;4.97;2.93;;;14.50;99.90;;;;;;4975924;28;20427;-70
2023/10/01 04:16:46;;;;;;;11.27;3.00;;;14.50;99.90;;;;;;4990728;28;20440;-68
2023/10/01 04:19:40;;;;;;;4.60;3.50;;;14.50;99.90;;;;;;4976347;28;20431;-70
2023/10/01 04:22:07;;;;;;;7.17;2.93;;;14.50;99.90;;;;;;4983097;28;20454;-68
2023/10/01 04:25:00;;;;;;;14.13;3.63;;;14.50;99.90;;;;;;4976972;28;20423;-68
2023/10/01 04:27:54;;;;;;;9.10;4.57;;;14.50;99.90;;;;;;4992738;28;20482;-68
2023/10/01 04:30:56;;;;;;;8.20;3.97;;;14.50;99.90;;;;;;4990292;28;20499;-67
2023/10/01 04:33:23;;;;;;;6.40;3.97;;;14.50;99.90;;;;;;4993345;28;20491;-68
2023/10/01 04:35:55;;;;;;;11.53;3.67;;;14.50;99.90;;;;;;4976212;28;20503;-69
2023/10/01 04:38:29;;;;;;;12.90;3.50;;;14.50;99.90;;;;;;4977149;28;20758;-67
2023/10/01 04:41:26;;;;;;;10.10;4.97;;;14.50;99.90;;;;;;4958905;28;20506;-67
2023/10/01 04:44:06;;;;;;;13.03;3.40;;;14.40;99.90;;;;;;4976143;28;20432;-70
2023/10/01 04:46:40;;;;;;;13.87;3.50;;;14.40;99.90;;;;;;4975908;28;20470;-68
2023/10/01 04:49:56;;;;;;;11.57;4.00;;;14.40;99.90;;;;;;4977072;28;20407;-69
2023/10/01 04:52:00;;;;;;;8.10;3.00;;;14.40;99.90;;;;;;4978589;28;20440;-70
2023/10/01 04:54:28;;;;;;;9.47;3.03;;;14.40;99.90;;;;;;4976684;28;20420;-68
2023/10/01 04:56:57;;;;;;;6.33;3.27;;;14.40;99.90;;;;;;4955850;28;20476;-67
2023/10/01 04:59:24;;;;;;;5.10;3.87;;;14.40;99.90;;;;;;4956841;28;20420;-68
2023/10/01 05:01:56;;;;;;;7.17;3.83;;;14.40;99.80;;;;;;4970556;28;20798;-68
2023/10/01 05:04:25;;;;;;;9.10;4.00;;;14.40;97.80;;;;;;4963464;28;20503;-68
2023/10/01 05:07:02;;;;;;;8.67;3.73;;;14.40;96.00;;;;;;4979902;28;20459;-68
2023/10/01 05:09:28;;;;;;;10.30;4.27;;;14.40;96.90;;;;;;4964026;28;20430;-69
2023/10/01 05:12:17;;;;;;;10.53;3.60;;;14.40;96.20;;;;;;4978617;28;20428;-70
2023/10/01 05:14:59;;;;;;;5.67;3.73;;;14.40;94.10;;;;;;4994678;28;20805;-67
2023/10/01 05:17:33;;;;;;;6.90;3.40;;;14.40;93.60;;;;;;4978527;28;20452;-67
2023/10/01 05:20:08;;;;;;;7.63;3.80;;;14.40;97.10;;;;;;4979116;28;20532;-68
2023/10/01 05:22:56;;;;;;;;;;;;;;;;;;;;;
2023/10/01 05:25:26;;;;;;;6.30;3.43;;;14.40;97.90;;;;;;4995006;28;20443;-70
2023/10/01 05:27:56;;;;;;;6.20;3.83;;;14.50;99.00;;;;;;4978723;28;20499;-70
2023/10/01 05:30:42;;;;;;;5.90;3.67;;;14.50;97.40;;;;;;4961473;28;20456;-69
2023/10/01 05:33:11;;;;;;;7.73;3.00;;;14.50;93.70;;;;;;4996461;28;20412;-68
2023/10/01 05:35:47;;;;;;;9.93;3.97;;;14.40;93.60;;;;;;4975581;28;20571;-67
2023/10/01 05:38:16;;;;;;;8.97;4.13;;;14.50;94.90;;;;;;4949260;28;20431;-68
2023/10/01 05:40:44;;;;;;;6.40;3.97;;;14.50;95.60;;;;;;4977822;28;20416;-66
2023/10/01 05:43:13;;;;;;;6.40;3.37;;;14.50;95.40;;;;;;4995504;28;20404;-66
2023/10/01 05:45:52;;;;;;;6.47;3.80;;;14.50;96.00;;;;;;4995140;28;20428;-67
2023/10/01 05:48:25;;;;;;;9.33;4.57;;;14.50;94.50;;;;;;4986624;28;20420;-68
2023/10/01 05:50:57;;;;;;;5.20;3.90;;;14.50;93.70;;;;;;4977809;28;20432;-67
2023/10/01 05:53:24;;;;;;;7.07;4.17;;;14.50;93.70;;;;;;4978145;28;20519;-67
2023/10/01 05:55:50;;;;;;;9.13;4.17;;;14.40;93.60;;;;;;4996049;28;20416;-67
2023/10/01 05:58:22;;;;;;;13.00;4.30;;;14.40;93.60;;;;;;4996035;28;20428;-69
2023/10/01 06:00:58;;;;;;;9.87;5.03;;;14.40;93.70;;;;;;4976095;28;20546;-67
2023/10/01 06:03:30;;;;;;;7.70;3.83;;;14.40;96.00;;;;;;4993816;28;20436;-68
2023/10/01 06:05:59;;;;;;;8.43;4.50;;;14.50;98.20;;;;;;4978269;28;20463;-66
2023/10/01 06:08:26;;;;;;;6.17;3.80;;;14.50;97.40;;;;;;4978289;28;20495;-68
2023/10/01 06:10:59;;;;;;;14.50;6.30;;;14.50;98.00;;;;;;4977765;28;20424;-69
2023/10/01 06:13:38;;;;;;;8.03;4.90;;;14.50;96.50;;;;;;4995094;28;20415;-68
2023/10/01 06:16:13;;;;;;;11.77;4.67;;;14.50;96.80;;;;;;4973198;28;20443;-68
2023/10/01 06:18:49;;;;;;;11.40;5.83;;;14.50;97.20;;;;;;4979137;28;20439;-67
2023/10/01 06:21:25;;;;;;;14.27;4.80;;;14.40;93.60;;;;;;4994765;28;20439;-68
2023/10/01 06:23:52;;;;;;;9.87;4.17;;;14.40;93.70;;;;;;4978250;28;20499;-66
2023/10/01 06:26:57;;;;;;;8.97;4.57;;;14.30;96.90;;;;;;4966325;28;20862;-69
2023/10/01 06:29:24;;;;;;;7.40;4.63;;;14.30;98.50;;;;;;4995321;28;20447;-69
2023/10/01 06:32:01;;;;;;;7.33;4.20;;;14.30;99.90;;;;;;4975795;28;20463;-67
2023/10/01 06:34:39;;;;;;;7.60;4.30;;;14.40;99.90;;;;;;4977899;28;20502;-69
2023/10/01 06:37:08;;;;;;;6.03;3.90;;;14.40;99.90;;;;;;4995493;28;20439;-67
2023/10/01 06:39:44;;;;;;;6.20;4.00;;;14.50;99.90;;;;;;4993919;28;20423;-79
2023/10/01 06:42:19;;;;;;;7.53;4.80;;;14.60;99.90;;;;;;4991671;28;20435;-67
2023/10/01 06:44:50;;;;;;;7.57;4.07;;;14.70;99.90;;;;;;4994306;28;20817;-68
2023/10/01 06:47:17;;;;;;;5.27;4.43;;;14.70;99.90;;;;;;4993856;28;20945;-67
2023/10/01 06:50:07;;;;;;;8.27;5.00;;;14.70;99.90;;;;;;4994181;28;20415;-69
2023/10/01 06:52:41;;;;;;;7.73;4.60;;;14.80;99.90;;;;;;4993971;28;20526;-67
2023/10/01 06:55:25;;;;;;;9.90;4.97;;;14.80;99.90;;;;;;4978493;28;20431;-69
2023/10/01 06:57:52;;;;;;;6.40;5.50;;;14.80;99.90;;;;;;4978364;28;20458;-70
2023/10/01 07:00:21;;;;;;;8.70;4.23;;;14.80;99.80;;;;;;4973731;28;20448;-69
2023/10/01 07:02:51;;;;;;;7.57;5.17;;;14.80;99.90;;;;;;4977301;28;20463;-69
2023/10/01 07:05:22;;;;;;;6.90;4.63;;;14.80;99.90;;;;;;4977926;28;20486;-67
2023/10/01 07:07:48;;;;;;;12.90;6.43;;;14.80;99.30;;;;;;4978466;28;20511;-67
2023/10/01 07:10:19;;;;;;;6.40;4.60;;;14.80;98.60;;;;;;4974892;28;20440;-67
2023/10/01 07:13:04;;;;;;;15.80;5.83;;;14.90;99.90;;;;;;4993984;28;20805;-70
2023/10/01 07:15:36;;;;;;;6.13;4.70;;;14.90;99.90;;;;;;4977579;28;20436;-67
2023/10/01 07:18:19;;;;;;;8.30;5.10;;;14.90;99.00;;;;;;4961443;28;20401;-68
2023/10/01 07:20:49;;;;;;;7.07;5.30;;;14.90;97.90;;;;;;4962419;28;20475;-67
2023/10/01 07:23:18;;;;;;;13.27;5.93;;;14.90;98.40;;;;;;4961333;28;20424;-67
2023/10/01 07:25:47;;;;;;;14.27;7.60;;;15.00;98.50;;;;;;4977861;28;20428;-68
2023/10/01 07:28:13;;;;;;;10.13;5.70;;;15.10;99.90;;;;;;4961227;28;20412;-67
2023/10/01 07:34:12;;;;;;;9.87;5.10;;;15.20;98.40;;;;;;4994493;28;20176;-67
2023/10/01 07:37:04;;;;;;;6.70;5.10;;;15.20;98.30;;;;;;4977174;28;20426;-69
2023/10/01 07:39:36;;;;;;;12.17;6.97;;;15.20;96.30;;;;;;4992045;28;20435;-68
2023/10/01 07:42:04;;;;;;;9.27;6.17;;;15.20;93.90;;;;;;4994090;28;20530;-68
2023/10/01 07:44:35;;;;;;;7.30;5.80;;;15.30;94.00;;;;;;4961359;28;20412;-67
2023/10/01 07:47:03;;;;;;;14.63;6.80;;;15.20;94.00;;;;;;4976938;28;20959;-68
2023/10/01 07:49:46;;;;;;;9.90;6.80;;;15.20;93.90;;;;;;4977048;28;20496;-68
2023/10/01 07:52:28;;;;;;;10.80;5.80;;;15.20;93.90;;;;;;4994000;28;20506;-69
2023/10/01 07:54:59;;;;;;;15.23;7.80;;;15.20;94.00;;;;;;4991694;28;20515;-68
2023/10/01 07:57:31;;;;;;;13.70;6.70;;;15.20;93.90;;;;;;4993837;28;20792;-67
2023/10/01 08:00:00;;;;;;;8.53;7.00;;;15.10;93.90;;;;;;4976886;28;20459;-66
2023/10/01 08:02:28;;;;;;;18.53;7.80;;;15.10;93.90;;;;;;4993940;28;20435;-68
2023/10/01 08:04:58;;;;;;;10.67;8.00;;;15.10;94.00;;;;;;4977060;28;20419;-67
2023/10/01 08:07:39;;;;;;;12.63;7.33;;;15.10;98.30;;;;;;4976791;28;20452;-68
2023/10/01 08:10:17;;;;;;;13.30;7.33;;;15.20;99.90;;;;;;4977717;28;20558;-68
2023/10/01 08:15:31;;;;;;;17.37;7.90;;;15.20;99.10;;;;;;4977059;28;20400;-69
2023/10/01 08:18:26;;;;;;;10.53;7.27;;;15.20;97.00;;;;;;4994039;28;20408;-67
2023/10/01 08:20:58;;;;;;;13.40;8.10;;;15.30;99.20;;;;;;4978515;28;20447;-68
2023/10/01 08:23:31;;;;;;;9.90;8.40;;;15.30;99.90;;;;;;4993662;28;20403;-69
2023/10/01 08:26:39;;;;;;;13.57;7.53;;;15.30;94.90;;;;;;4960414;28;21006;-67
2023/10/01 08:34:24;;;;;;;13.23;8.10;;;15.40;98.60;;;;;;4993414;28;20400;-68
2023/10/01 08:36:58;;;;;;;21.90;9.07;;;15.50;99.90;;;;;;4976155;28;20475;-68
2023/10/01 08:39:47;;;;;;;12.47;8.93;;;15.60;99.10;;;;;;4994583;28;20772;-69
2023/10/01 08:42:17;;;;;;;12.97;9.80;;;15.60;97.30;;;;;;4983190;28;20436;-67
2023/10/01 08:44:51;;;;;;;10.97;9.70;;;15.80;94.20;;;;;;4997542;28;20415;-67
2023/10/01 08:47:28;;;;;;;13.40;9.07;;;15.80;94.10;;;;;;4996880;28;20510;-66
2023/10/01 08:49:57;;;;;;;14.37;9.43;;;15.90;94.20;;;;;;4980711;28;20879;-68
2023/10/01 08:52:30;;;;;;;16.73;9.80;;;16.00;94.20;;;;;;4979718;28;20789;-68
2023/10/01 08:54:57;;;;;;;19.47;9.83;;;16.10;94.30;;;;;;4980496;28;20447;-67
2023/10/01 08:57:45;;;;;;;13.40;9.80;;;16.10;94.30;;;;;;4980096;28;20424;-68
2023/10/01 09:00:17;;;;;;;20.53;10.00;;;16.20;94.30;;;;;;4996719;28;20499;-68
2023/10/01 09:03:10;;;;;;;17.50;9.77;;;16.30;86.00;;;;;;4980920;28;20431;-67
2023/10/01 09:05:46;;;;;;;19.00;8.10;;;16.40;78.30;;;;;;4982016;28;20805;-68
2023/10/01 09:08:29;;;;;;;16.47;10.23;;;16.40;70.00;;;;;;4997072;28;20773;-69
2023/10/01 09:10:56;;;;;;;12.07;8.47;;;16.50;71.90;;;;;;4956936;28;20424;-69
2023/10/01 09:13:23;;;;;;;10.63;8.70;;;16.50;54.60;;;;;;4979954;28;20511;-67
2023/10/01 09:15:55;;;;;;;15.33;8.70;;;16.50;38.10;;;;;;4963625;28;20412;-68
2023/10/01 09:18:23;;;;;;;9.43;8.20;;;16.50;36.10;;;;;;4980156;28;20454;-68
2023/10/01 09:21:09;;;;;;;14.63;8.90;;;16.60;38.20;;;;;;4963263;28;20519;-68
2023/10/01 09:23:55;;;;;;;11.63;8.77;;;16.60;28.60;;;;;;4996823;28;20892;-67
2023/10/01 09:26:43;;;;;;;14.37;8.50;;;16.50;14.50;;;;;;4981027;28;20979;-69
2023/10/01 09:29:23;;;;;;;17.10;9.53;;;16.50;12.20;;;;;;4978838;28;20424;-68
2023/10/01 09:31:58;;;;;;;16.63;8.90;;;16.60;18.80;;;;;;4964055;28;20468;-68
2023/10/01 09:34:31;;;;;;;21.43;10.20;;;16.70;15.20;;;;;;4965356;28;20447;-68
2023/10/01 09:37:00;;;;;;;14.30;9.20;;;16.80;9.50;;;;;;4996799;28;20467;-68
2023/10/01 09:39:42;;;;;;;18.50;8.83;;;16.90;1.00;;;;;;4963639;28;20761;-69
2023/10/01 09:42:25;;;;;;;14.97;9.10;;;17.00;1.00;;;;;;4979538;28;20428;-68
2023/10/01 09:44:53;;;;;;;19.80;9.93;;;17.00;1.00;;;;;;4967292;28;20475;-68
2023/10/01 09:47:25;;;;;;;14.60;9.10;;;17.00;1.00;;;;;;4978812;28;20883;-68
2023/10/01 09:49:58;;;;;;;12.60;8.57;;;17.00;1.00;;;;;;4961853;28;20774;-69
2023/10/01 09:52:48;;;;;;;12.37;8.53;;;17.10;1.00;;;;;;4978323;28;20439;-67
2023/10/01 09:55:27;;;;;;;13.30;9.50;;;17.20;1.00;;;;;;4996132;28;20426;-68
2023/10/01 09:57:54;;;;;;;17.57;9.60;;;17.30;1.00;;;;;;4950054;28;20933;-68
2023/10/01 10:00:49;;;;;;;13.67;9.33;;;17.30;1.00;;;;;;4964502;28;20407;-68
2023/10/01 10:03:18;;;;;;;24.97;9.90;;;17.40;1.00;;;;;;4995776;28;20462;-76
2023/10/01 10:05:46;;;;;;;20.00;10.33;;;17.40;1.00;;;;;;4978265;28;20424;-68
2023/10/01 10:08:20;;;;;;;17.10;9.73;;;17.40;1.00;;;;;;4995939;28;20776;-68
2023/10/01 10:10:55;;;;;;;12.80;8.90;;;17.30;1.00;;;;;;4963183;28;20404;-68
2023/10/01 10:13:46;;;;;;;14.60;9.63;;;17.30;1.00;;;;;;4993350;28;20479;-68
2023/10/01 10:16:32;;;;;;;13.90;8.43;;;17.20;1.00;;;;;;4995748;28;20905;-69
2023/10/01 10:19:16;;;;;;;13.20;9.10;;;17.30;1.00;;;;;;4968560;28;20423;-67
2023/10/01 10:22:05;;;;;;;13.90;9.37;;;17.30;1.00;;;;;;4994659;28;20444;-68
2023/10/01 10:24:34;;;;;;;11.20;7.93;;;17.40;1.00;;;;;;4995665;28;20408;-70
2023/10/01 10:27:15;;;;;;;21.33;8.47;;;17.50;1.00;;;;;;4995931;28;20560;-67
2023/10/01 10:29:57;;;;;;;12.97;8.03;;;17.50;1.00;;;;;;4979104;28;20440;-68
2023/10/01 10:32:32;;;;;;;14.50;8.97;;;17.60;1.00;;;;;;4995534;28;20436;-68
2023/10/01 10:35:18;;;;;;;14.07;8.20;;;17.60;1.00;;;;;;4995538;28;20396;-68
2023/10/01 10:37:53;;;;;;;13.13;9.73;;;17.70;1.00;;;;;;4995196;28;20439;-68
2023/10/01 10:40:24;;;;;;;11.97;9.77;;;17.70;1.00;;;;;;4977639;28;20420;-72
2023/10/01 10:43:02;;;;;;;14.07;9.20;;;17.70;1.00;;;;;;4962765;28;20440;-67
2023/10/01 10:45:48;;;;;;;12.77;8.00;;;17.60;1.00;;;;;;4995155;28;20420;-68
2023/10/01 10:48:21;;;;;;;13.27;8.30;;;17.60;1.00;;;;;;4979149;28;20424;-67
2023/10/01 10:51:02;;;;;;;13.77;8.47;;;17.70;1.00;;;;;;4977937;28;20408;-67
2023/10/01 10:53:37;;;;;;;20.47;10.70;;;17.70;1.00;;;;;;4995325;28;20409;-68
2023/10/01 10:56:13;;;;;;;17.10;10.43;;;17.60;1.00;;;;;;4995273;28;20415;-68
2023/10/01 10:59:03;;;;;;;13.33;8.57;;;17.60;1.00;;;;;;4977285;28;20845;-68
2023/10/01 11:01:51;;;;;;;12.10;8.20;;;17.60;1.00;;;;;;4994084;28;20431;-68
2023/10/01 11:04:19;;;;;;;14.97;9.40;;;17.80;1.00;;;;;;4995090;28;20758;-68
2023/10/01 11:07:04;;;;;;;11.10;8.50;;;18.00;1.00;;;;;;4994682;28;20960;-68
2023/10/01 11:09:34;;;;;;;18.70;8.80;;;18.10;1.00;;;;;;4994972;28;20487;-67
2023/10/01 11:12:07;;;;;;;15.20;11.23;;;18.30;1.00;;;;;;4978025;28;20451;-67
2023/10/01 11:14:36;;;;;;;16.90;10.27;;;18.30;1.00;;;;;;4994624;28;20821;-68
2023/10/01 11:17:05;;;;;;;14.30;9.70;;;18.30;1.00;;;;;;4976867;28;20424;-68
2023/10/01 11:19:35;;;;;;;18.13;10.83;;;18.30;1.00;;;;;;4962180;28;20424;-83
2023/10/01 11:22:09;;;;;;;15.60;9.90;;;18.30;1.00;;;;;;4977617;28;20451;-68
2023/10/01 11:24:41;;;;;;;17.80;9.70;;;18.20;1.00;;;;;;4978057;28;20463;-68
2023/10/01 11:30:13;;;;;;;17.00;10.03;;;18.10;1.00;;;;;;4994242;28;20919;-68
2023/10/01 11:35:59;;;;;;;16.17;10.50;;;18.00;1.00;;;;;;4994274;28;20415;-68
2023/10/01 11:38:32;;;;;;;25.33;12.20;;;18.10;1.00;;;;;;4994206;28;20415;-67
2023/10/01 11:41:10;;;;;;;14.43;10.97;;;18.00;1.00;;;;;;4977065;28;20440;-68
2023/10/01 11:43:58;;;;;;;14.50;11.00;;;17.90;1.00;;;;;;4977959;28;20416;-68
2023/10/01 11:46:56;;;;;;;18.70;11.17;;;17.90;1.00;;;;;;4994228;28;20463;-67
2023/10/01 11:49:44;;;;;;;15.10;10.10;;;17.90;1.00;;;;;;4994081;28;20408;-69
2023/10/01 11:52:25;;;;;;;12.20;10.53;;;17.90;1.00;;;;;;4979293;28;20440;-68
2023/10/01 11:54:54;;;;;;;15.07;12.60;;;18.00;1.00;;;;;;4978200;28;20431;-68
2023/10/01 11:57:35;;;;;;;15.00;10.37;;;18.10;1.00;;;;;;4993586;28;20424;-68
2023/10/01 12:00:03;;;;;;;17.60;10.13;;;18.20;1.00;;;;;;4993618;28;20428;-68
2023/10/01 12:02:32;;;;;;;17.97;10.40;;;18.10;1.00;;;;;;4960262;28;20452;-68
2023/10/01 12:05:02;;;;;;;17.97;12.33;;;18.00;1.00;;;;;;4975953;28;20432;-68
2023/10/01 12:07:32;;;;;;;15.07;10.40;;;17.90;1.00;;;;;;4993881;28;20459;-67
2023/10/01 12:10:04;;;;;;;13.90;9.20;;;18.00;1.00;;;;;;4960689;28;20416;-68
2023/10/01 12:12:37;;;;;;;15.13;8.70;;;17.90;1.00;;;;;;4977347;28;20435;-69
2023/10/01 12:17:51;;;;;;;16.07;10.50;;;17.80;1.00;;;;;;4979541;28;20399;-68
2023/10/01 12:20:28;;;;;;;13.37;8.63;;;17.80;1.00;;;;;;4975836;28;20435;-68
2023/10/01 12:23:15;;;;;;;17.00;8.60;;;17.80;1.00;;;;;;4977763;28;20416;-67
2023/10/01 12:28:25;;;;;;;17.53;8.97;;;17.80;1.00;;;;;;4993999;28;20394;-67
2023/10/01 12:30:57;;;;;;;9.03;7.50;;;17.80;1.00;;;;;;4990433;28;20520;-68
2023/10/01 12:33:43;;;;;;;14.87;7.07;;;17.80;1.00;;;;;;4990971;28;20431;-68
2023/10/01 12:42:04;;;;;;;22.47;8.60;;;17.60;1.00;;;;;;4993396;28;20424;-68
2023/10/01 12:44:43;;;;;;;13.30;8.87;;;17.40;1.00;;;;;;4993238;28;20444;-67
2023/10/01 12:47:15;;;;;;;14.60;8.77;;;17.30;1.00;;;;;;4976846;28;20508;-67
2023/10/01 12:49:58;;;;;;;9.07;6.83;;;17.20;1.00;;;;;;4976185;28;20416;-68
2023/10/01 12:52:30;;;;;;;14.73;7.00;;;17.00;1.00;;;;;;4965061;28;20494;-67
2023/10/01 12:55:00;;;;;;;14.70;8.30;;;17.00;1.00;;;;;;4977299;28;20401;-67
2023/10/01 12:57:33;;;;;;;11.07;7.57;;;17.00;1.00;;;;;;4990518;28;20479;-68
2023/10/01 13:01:02;;;;;;;14.17;8.30;;;17.00;1.00;;;;;;4961401;28;20443;-68
2023/10/01 13:03:09;;;;;;;6.93;5.83;;;16.90;1.00;;;;;;4980595;28;20428;-67
2023/10/01 13:05:43;;;;;;;7.90;6.90;;;17.00;1.00;;;;;;4993551;28;20400;-68
2023/10/01 13:08:13;;;;;;;10.40;7.23;;;17.00;8.70;;;;;;4993057;28;20480;-68
2023/10/01 13:10:50;;;;;;;9.73;6.93;;;17.00;17.00;;;;;;4975925;28;20471;-68
2023/10/01 13:13:20;;;;;;;11.63;6.97;;;17.10;22.90;;;;;;4977432;28;20491;-67
2023/10/01 13:15:54;;;;;;;18.30;7.80;;;17.10;24.10;;;;;;4993367;28;20447;-68
2023/10/01 13:18:28;;;;;;;10.20;7.40;;;17.10;25.70;;;;;;4977418;28;20411;-68
2023/10/01 13:21:06;;;;;;;11.33;6.83;;;17.00;30.00;;;;;;4976341;28;20455;-68
2023/10/01 13:23:41;;;;;;;16.23;9.27;;;17.00;38.90;;;;;;4993308;28;20491;-68
2023/10/01 13:26:12;;;;;;;10.73;6.20;;;17.00;52.10;;;;;;4979170;28;20419;-69
2023/10/01 13:28:53;;;;;;;8.50;5.47;;;16.90;56.40;;;;;;4964402;28;20411;-67
2023/10/01 13:34:11;;;;;;;13.63;7.57;;;16.60;65.20;;;;;;4980037;28;20486;-68
2023/10/01 14:09:48;;;;;;;9.03;5.70;;;16.00;99.90;;;;;;4995208;28;21292;-69
2023/10/01 14:15:04;;;;;;;6.33;5.70;;;16.10;99.90;;;;;;4981753;28;20427;-68
2023/10/01 14:17:30;;;;;;;7.90;5.60;;;16.20;99.90;;;;;;4962650;28;20416;-68
2023/10/01 14:19:56;;;;;;;10.63;6.10;;;16.20;99.90;;;;;;4977309;28;20796;-68
2023/10/01 14:22:23;;;;;;;6.60;5.40;;;16.20;99.90;;;;;;4961488;28;20204;-67
2023/10/01 14:24:50;;;;;;;14.43;7.13;;;16.20;99.90;;;;;;4995926;28;20165;-68
2023/10/01 14:27:25;;;;;;;6.47;5.33;;;16.20;99.90;;;;;;4978370;28;20478;-67
2023/10/01 14:30:24;;;;;;;8.53;6.27;;;16.20;99.90;;;;;;4994693;28;20787;-68
2023/10/01 14:32:58;;;;;;;6.90;4.50;;;16.20;99.90;;;;;;4981838;28;20475;-67
2023/10/01 14:35:37;;;;;;;8.70;5.20;;;16.20;99.90;;;;;;4963635;28;20420;-67
2023/10/01 14:38:05;;;;;;;7.73;6.23;;;16.20;99.90;;;;;;4994195;28;20420;-72
2023/10/01 14:40:32;;;;;;;11.23;5.70;;;16.20;99.90;;;;;;4994397;28;20415;-68
2023/10/01 14:43:02;;;;;;;6.60;5.87;;;16.20;99.90;;;;;;4978507;28;20924;-68
2023/10/01 14:45:42;;;;;;;8.43;6.07;;;16.10;99.90;;;;;;4963562;28;20416;-67
2023/10/01 14:48:17;;;;;;;6.93;6.17;;;16.10;99.90;;;;;;4967093;28;20475;-68
2023/10/01 14:50:43;;;;;;;5.63;5.00;;;16.00;99.90;;;;;;4961315;28;20746;-67
2023/10/01 14:53:13;;;;;;;6.13;4.33;;;16.00;99.90;;;;;;4978049;28;20404;-67
2023/10/01 14:55:40;;;;;;;5.33;4.83;;;16.10;99.90;;;;;;4993927;28;20420;-67